createdAt,value
2019-03-04T00:01:55.239Z,2.10
2019-03-04T00:04:24.621Z,2.53
2019-03-04T00:06:54.093Z,2.33
2019-03-04T00:09:23.414Z,2.80
2019-03-04T00:11:52.806Z,2.30
2019-03-04T00:14:22.259Z,2.23
2019-03-04T00:16:51.727Z,2.10
2019-03-04T00:19:21.106Z,3.13
2019-03-04T00:21:50.658Z,2.20
2019-03-04T00:24:19.999Z,2.50
2019-03-04T00:26:49.507Z,2.40
2019-03-04T00:29:18.902Z,2.50
2019-03-04T00:31:48.338Z,2.40
2019-03-04T00:34:17.885Z,2.17
2019-03-04T00:36:47.347Z,2.30
2019-03-04T00:39:16.854Z,2.33
2019-03-04T00:41:46.258Z,2.87
2019-03-04T00:44:15.608Z,5.27
2019-03-04T00:46:45.025Z,2.40
2019-03-04T00:49:14.413Z,2.10
2019-03-04T00:51:43.823Z,3.20
2019-03-04T00:54:13.614Z,2.50
2019-03-04T00:56:43.048Z,2.07
2019-03-04T00:59:12.374Z,2.27
2019-03-04T01:01:41.801Z,2.47
2019-03-04T01:04:11.106Z,2.50
2019-03-04T01:06:40.620Z,1.97
2019-03-04T01:09:14.384Z,2.27
2019-03-04T01:11:44.368Z,2.47
2019-03-04T01:14:13.742Z,2.37
2019-03-04T01:16:43.107Z,2.37
2019-03-04T01:19:12.480Z,2.17
2019-03-04T01:21:41.893Z,3.30
2019-03-04T01:24:11.298Z,2.43
2019-03-04T01:26:40.740Z,2.67
2019-03-04T01:29:10.306Z,2.30
2019-03-04T01:31:39.853Z,2.10
2019-03-04T01:34:09.514Z,2.63
2019-03-04T01:36:38.888Z,2.43
2019-03-04T01:39:08.736Z,2.10
2019-03-04T01:41:38.142Z,2.70
2019-03-04T01:44:07.480Z,2.40
2019-03-04T01:46:36.874Z,2.50
2019-03-04T01:49:06.210Z,2.30
2019-03-04T01:51:35.622Z,2.60
2019-03-04T01:54:04.944Z,2.90
2019-03-04T01:56:34.268Z,2.63
2019-03-04T01:59:03.697Z,2.43
2019-03-04T02:01:33.056Z,2.63
2019-03-04T02:04:02.406Z,2.60
2019-03-04T02:06:31.755Z,2.70
2019-03-04T02:09:01.062Z,2.27
2019-03-04T02:11:30.362Z,2.93
2019-03-04T02:13:59.661Z,1.93
2019-03-04T02:16:28.971Z,2.20
2019-03-04T02:18:58.345Z,2.50
2019-03-04T02:21:28.048Z,3.10
2019-03-04T02:23:58.847Z,2.43
2019-03-04T02:26:31.831Z,2.00
2019-03-04T02:29:01.255Z,2.83
2019-03-04T02:31:30.725Z,2.30
2019-03-04T02:34:00.034Z,2.47
2019-03-04T02:36:29.480Z,1.90
2019-03-04T02:39:09.654Z,2.30
2019-03-04T02:41:39.031Z,2.27
2019-03-04T02:44:08.420Z,2.17
2019-03-04T02:46:37.815Z,2.90
2019-03-04T02:49:08.184Z,2.90
2019-03-04T02:51:37.476Z,2.30
2019-03-04T02:54:06.942Z,2.40
2019-03-04T02:56:36.237Z,2.37
2019-03-04T02:59:05.720Z,2.37
2019-03-04T03:01:35.126Z,2.00
2019-03-04T03:04:04.512Z,2.50
2019-03-04T03:06:33.982Z,2.23
2019-03-04T03:09:04.309Z,2.10
2019-03-04T03:11:34.128Z,2.30
2019-03-04T03:14:03.551Z,2.03
2019-03-04T03:16:33.031Z,2.67
2019-03-04T03:19:02.408Z,2.27
2019-03-04T03:21:31.870Z,2.57
2019-03-04T03:24:01.311Z,2.10
2019-03-04T03:26:30.792Z,2.57
2019-03-04T03:29:00.216Z,2.57
2019-03-04T03:31:29.540Z,2.63
2019-03-04T03:33:58.946Z,2.47
2019-03-04T03:36:28.334Z,2.43
2019-03-04T03:38:57.714Z,2.20
2019-03-04T03:41:27.146Z,3.03
2019-03-04T03:43:56.526Z,2.00
2019-03-04T03:46:26.034Z,2.00
2019-03-04T03:48:55.503Z,2.57
2019-03-04T03:51:25.004Z,2.53
2019-03-04T03:53:54.319Z,4.33
2019-03-04T03:56:23.833Z,2.00
2019-03-04T03:58:53.140Z,2.23
2019-03-04T04:01:22.588Z,2.27
2019-03-04T04:03:52.167Z,2.40
2019-03-04T04:06:21.714Z,3.23
2019-03-04T04:08:51.129Z,2.20
2019-03-04T04:11:20.723Z,1.60
2019-03-04T04:13:50.921Z,2.47
2019-03-04T04:16:20.274Z,1.90
2019-03-04T04:18:49.750Z,2.27
2019-03-04T04:21:19.148Z,3.70
2019-03-04T04:23:48.602Z,2.50
2019-03-04T04:26:23.746Z,2.70
2019-03-04T04:29:00.413Z,3.43
2019-03-04T04:31:29.861Z,2.70
2019-03-04T04:33:59.219Z,2.00
2019-03-04T04:36:28.648Z,2.87
2019-03-04T04:38:58.018Z,2.30
2019-03-04T04:41:27.410Z,3.20
2019-03-04T04:43:56.833Z,2.70
2019-03-04T04:47:05.378Z,4.13
2019-03-04T04:49:35.620Z,2.13
2019-03-04T04:52:05.055Z,4.00
2019-03-04T04:54:34.331Z,3.30
2019-03-04T04:57:03.758Z,2.20
2019-03-04T04:59:33.195Z,2.10
2019-03-04T05:02:02.737Z,2.33
2019-03-04T05:04:32.083Z,3.83
2019-03-04T05:07:01.399Z,2.50
2019-03-04T05:09:32.811Z,2.80
2019-03-04T05:12:02.151Z,2.67
2019-03-04T05:14:31.706Z,3.13
2019-03-04T05:17:01.417Z,2.87
2019-03-04T05:19:30.796Z,3.57
2019-03-04T05:22:01.470Z,2.93
2019-03-04T05:24:30.739Z,3.80
2019-03-04T05:27:00.162Z,4.10
2019-03-04T05:29:30.650Z,2.77
2019-03-04T05:32:00.139Z,2.47
2019-03-04T05:34:29.505Z,2.47
2019-03-04T05:36:58.967Z,1.57
2019-03-04T05:39:28.603Z,2.00
2019-03-04T05:41:58.170Z,1.97
2019-03-04T05:44:27.766Z,1.77
2019-03-04T05:46:57.187Z,2.37
2019-03-04T05:49:26.524Z,2.23
2019-03-04T05:51:55.867Z,2.30
2019-03-04T05:54:25.382Z,2.17
2019-03-04T05:56:58.987Z,2.03
2019-03-04T05:59:30.025Z,2.30
2019-03-04T06:02:10.063Z,1.80
2019-03-04T06:04:40.787Z,1.90
2019-03-04T06:07:29.525Z,2.40
2019-03-04T06:10:00.663Z,2.20
2019-03-04T06:12:30.676Z,1.90
2019-03-04T06:15:00.524Z,2.03
2019-03-04T06:17:30.509Z,2.10
2019-03-04T06:20:00.297Z,2.20
2019-03-04T06:22:31.307Z,2.30
2019-03-04T06:25:01.142Z,2.23
2019-03-04T06:27:31.106Z,2.43
2019-03-04T06:30:01.258Z,2.70
2019-03-04T06:32:31.704Z,2.50
2019-03-04T06:35:01.394Z,2.20
2019-03-04T06:37:31.364Z,1.70
2019-03-04T06:40:00.992Z,2.30
2019-03-04T06:42:30.988Z,2.60
2019-03-04T06:45:01.306Z,2.30
2019-03-04T06:47:31.776Z,2.80
2019-03-04T06:50:05.038Z,2.50
2019-03-04T06:52:35.102Z,2.00
2019-03-04T06:55:30.681Z,2.67
2019-03-04T06:58:01.390Z,2.17
2019-03-04T07:01:08.957Z,2.20
2019-03-04T07:03:45.462Z,2.30
2019-03-04T07:06:27.198Z,2.50
2019-03-04T07:09:18.085Z,2.00
2019-03-04T07:11:53.015Z,2.30
2019-03-04T07:14:23.226Z,2.70
2019-03-04T07:16:54.163Z,2.23
2019-03-04T07:19:36.819Z,1.57
2019-03-04T07:22:06.406Z,2.20
2019-03-04T07:24:37.200Z,3.00
2019-03-04T07:29:59.497Z,2.17
2019-03-04T07:32:34.059Z,2.37
2019-03-04T07:35:52.601Z,2.40
2019-03-04T07:38:58.917Z,2.40
2019-03-04T07:41:45.051Z,3.60
2019-03-04T07:44:18.206Z,2.13
2019-03-04T07:46:48.817Z,2.27
2019-03-04T07:49:21.291Z,1.93
2019-03-04T07:51:52.291Z,2.30
2019-03-04T07:54:27.117Z,2.07
2019-03-04T07:56:59.183Z,2.40
2019-03-04T07:59:30.542Z,2.03
2019-03-04T08:02:04.269Z,2.10
2019-03-04T08:04:36.561Z,2.60
2019-03-04T08:07:38.279Z,2.30
2019-03-04T08:10:54.735Z,2.40
2019-03-04T08:13:30.003Z,2.40
2019-03-04T08:16:02.695Z,2.33
2019-03-04T08:18:35.567Z,2.17
2019-03-04T08:21:07.342Z,2.03
2019-03-04T08:23:39.950Z,2.30
2019-03-04T08:26:10.666Z,2.43
2019-03-04T08:28:45.586Z,2.77
2019-03-04T08:31:20.976Z,2.70
2019-03-04T08:33:51.936Z,2.23
2019-03-04T08:36:22.398Z,2.87
2019-03-04T08:38:56.671Z,2.50
2019-03-04T08:44:04.745Z,3.63
2019-03-04T08:46:36.673Z,2.57
2019-03-04T08:49:08.068Z,2.50
2019-03-04T08:51:39.617Z,3.20
2019-03-04T08:54:11.512Z,3.50
2019-03-04T08:56:42.248Z,2.50
2019-03-04T08:59:15.745Z,3.13
2019-03-04T09:01:48.173Z,2.47
2019-03-04T09:04:27.420Z,2.73
2019-03-04T09:06:59.277Z,2.30
2019-03-04T09:09:52.486Z,2.57
2019-03-04T09:12:22.868Z,2.77
2019-03-04T09:14:54.397Z,3.07
2019-03-04T09:17:27.486Z,3.17
2019-03-04T09:20:00.756Z,2.97
2019-03-04T09:22:32.092Z,3.27
2019-03-04T09:25:03.787Z,3.10
2019-03-04T09:27:34.657Z,3.30
2019-03-04T09:30:06.628Z,3.20
2019-03-04T09:32:39.565Z,2.77
2019-03-04T09:35:15.031Z,2.90
2019-03-04T09:37:46.041Z,3.10
2019-03-04T09:40:19.655Z,2.57
2019-03-04T09:42:52.382Z,2.87
2019-03-04T09:45:38.884Z,3.00
2019-03-04T09:48:14.330Z,3.30
2019-03-04T09:50:47.379Z,2.90
2019-03-04T09:53:22.216Z,2.43
2019-03-04T09:55:54.883Z,3.13
2019-03-04T09:58:48.665Z,2.60
2019-03-04T10:01:32.016Z,2.33
2019-03-04T10:04:59.614Z,2.80
2019-03-04T10:08:05.622Z,3.20
2019-03-04T10:14:00.528Z,4.10
2019-03-04T10:16:49.768Z,3.27
2019-03-04T10:20:07.184Z,2.60
2019-03-04T10:23:30.527Z,2.13
2019-03-04T10:26:10.458Z,2.50
2019-03-04T10:43:16.696Z,2.37
2019-03-04T10:46:19.196Z,2.40
2019-03-04T10:48:52.116Z,2.20
2019-03-04T10:51:21.756Z,2.33
2019-03-04T10:53:51.493Z,2.73
2019-03-04T10:56:23.266Z,2.47
2019-03-04T10:58:52.828Z,2.83
2019-03-04T11:01:30.097Z,2.57
2019-03-04T11:03:53.835Z,2.80
2019-03-04T11:06:29.411Z,2.90
2019-03-04T11:08:59.140Z,2.10
2019-03-04T11:11:30.111Z,2.63
2019-03-04T11:14:50.251Z,2.70
2019-03-04T11:17:20.143Z,2.40
2019-03-04T11:19:50.571Z,2.07
2019-03-04T11:22:20.121Z,2.07
2019-03-04T11:24:49.703Z,1.63
2019-03-04T11:27:19.520Z,1.80
2019-03-04T11:29:51.794Z,1.43
2019-03-04T11:32:22.431Z,2.13
2019-03-04T11:34:52.131Z,2.10
2019-03-04T11:37:21.713Z,1.70
2019-03-04T11:39:57.233Z,1.70
2019-03-04T11:42:26.743Z,1.60
2019-03-04T11:44:56.249Z,2.00
2019-03-04T11:47:26.863Z,1.70
2019-03-04T11:49:56.408Z,1.77
2019-03-04T11:52:25.939Z,1.57
2019-03-04T11:54:55.363Z,1.70
2019-03-04T11:57:24.764Z,1.50
2019-03-04T11:59:54.224Z,2.07
2019-03-04T12:02:25.709Z,1.50
2019-03-04T12:04:55.213Z,1.93
2019-03-04T12:07:25.894Z,1.77
2019-03-04T12:09:56.367Z,2.00
2019-03-04T12:12:25.874Z,2.20
2019-03-04T12:14:55.598Z,1.40
2019-03-04T12:17:25.271Z,1.40
2019-03-04T12:19:55.940Z,2.50
2019-03-04T12:22:25.612Z,2.00
2019-03-04T12:24:56.228Z,1.80
2019-03-04T12:27:26.162Z,1.40
2019-03-04T12:29:55.649Z,1.30
2019-03-04T12:32:30.906Z,1.00
2019-03-04T12:35:00.625Z,1.83
2019-03-04T12:37:30.183Z,1.63
2019-03-04T12:40:00.748Z,1.27
2019-03-04T12:42:30.304Z,1.53
2019-03-04T12:45:00.994Z,1.20
2019-03-04T12:47:30.604Z,1.30
2019-03-04T12:50:00.115Z,1.30
2019-03-04T12:52:29.742Z,1.83
2019-03-04T12:55:01.698Z,1.30
2019-03-04T12:57:31.441Z,1.10
2019-03-04T13:00:00.996Z,1.10
2019-03-04T13:02:30.628Z,1.87
2019-03-04T13:05:01.668Z,1.30
2019-03-04T13:07:32.460Z,1.47
2019-03-04T13:10:02.301Z,1.50
2019-03-04T13:12:33.304Z,2.17
2019-03-04T13:15:14.605Z,1.20
2019-03-04T13:17:44.378Z,1.30
2019-03-04T13:20:18.784Z,1.40
2019-03-04T13:22:49.221Z,1.10
2019-03-04T13:25:19.303Z,1.20
2019-03-04T13:27:50.356Z,1.00
2019-03-04T13:30:25.125Z,1.10
2019-03-04T13:32:55.325Z,1.57
2019-03-04T13:35:26.687Z,1.10
2019-03-04T13:37:56.728Z,1.20
2019-03-04T13:40:26.387Z,1.47
2019-03-04T13:42:57.611Z,1.40
2019-03-04T13:45:27.933Z,0.97
2019-03-04T13:47:58.054Z,1.20
2019-03-04T13:50:29.272Z,1.50
2019-03-04T13:52:59.183Z,1.30
2019-03-04T13:55:29.859Z,1.17
2019-03-04T13:58:00.170Z,1.13
2019-03-04T14:00:30.621Z,1.20
2019-03-04T14:03:00.211Z,1.30
2019-03-04T14:05:30.087Z,1.30
2019-03-04T14:08:03.497Z,1.10
2019-03-04T14:10:37.626Z,1.30
2019-03-04T14:13:07.835Z,1.40
2019-03-04T14:15:39.211Z,1.80
2019-03-04T14:18:15.079Z,1.37
2019-03-04T14:20:45.181Z,0.97
2019-03-04T14:23:18.757Z,1.03
2019-03-04T14:25:49.834Z,1.10
2019-03-04T14:28:23.465Z,1.00
2019-03-04T14:30:56.607Z,1.10
2019-03-04T14:33:29.754Z,1.03
2019-03-04T14:36:02.283Z,1.40
2019-03-04T14:38:35.110Z,1.50
2019-03-04T14:41:10.756Z,1.30
2019-03-04T14:43:42.407Z,2.07
2019-03-04T14:46:24.533Z,1.40
2019-03-04T14:48:58.460Z,1.40
2019-03-04T14:51:29.768Z,1.20
2019-03-04T14:54:02.914Z,1.10
2019-03-04T14:56:33.098Z,1.40
2019-03-04T14:59:10.897Z,1.50
2019-03-04T15:01:49.401Z,1.30
2019-03-04T15:04:37.702Z,1.33
2019-03-04T15:07:08.376Z,1.30
2019-03-04T15:09:49.677Z,1.10
2019-03-04T15:12:20.235Z,0.93
2019-03-04T15:14:50.826Z,1.33
2019-03-04T15:17:30.597Z,1.20
2019-03-04T15:20:08.888Z,1.03
2019-03-04T15:22:35.208Z,0.93
2019-03-04T15:25:06.788Z,1.00
2019-03-04T15:27:36.134Z,0.87
2019-03-04T15:30:13.965Z,1.20
2019-03-04T15:32:44.346Z,0.87
2019-03-04T15:35:17.481Z,1.17
2019-03-04T15:38:04.519Z,0.80
2019-03-04T15:40:34.581Z,0.90
2019-03-04T15:43:11.175Z,0.93
2019-03-04T15:45:47.888Z,1.07
2019-03-04T15:48:19.485Z,1.43
2019-03-04T15:50:51.856Z,1.67
2019-03-04T15:53:21.231Z,1.10
2019-03-04T15:55:50.961Z,1.23
2019-03-04T15:58:22.783Z,1.20
2019-03-04T16:00:52.857Z,1.23
2019-03-04T16:03:23.029Z,1.90
2019-03-04T16:05:53.778Z,1.00
2019-03-04T16:08:23.604Z,1.00
2019-03-04T16:10:55.207Z,1.20
2019-03-04T16:13:39.111Z,1.20
2019-03-04T16:16:19.841Z,1.70
2019-03-04T16:18:51.569Z,1.23
2019-03-04T16:21:21.157Z,1.13
2019-03-04T16:23:51.194Z,0.97
2019-03-04T16:26:20.751Z,1.47
2019-03-04T16:28:51.954Z,1.20
2019-03-04T16:31:23.894Z,1.47
2019-03-04T16:33:53.336Z,1.10
2019-03-04T16:36:23.106Z,1.27
2019-03-04T16:38:52.636Z,1.60
2019-03-04T16:41:22.860Z,1.30
2019-03-04T16:43:55.550Z,1.73
2019-03-04T16:46:25.146Z,1.47
2019-03-04T16:48:54.633Z,1.37
2019-03-04T16:51:24.258Z,1.00
2019-03-04T16:54:00.626Z,1.10
2019-03-04T16:56:30.814Z,1.63
2019-03-04T16:59:03.146Z,1.73
2019-03-04T17:01:32.656Z,1.10
2019-03-04T17:04:03.942Z,1.13
2019-03-04T17:06:33.421Z,1.13
2019-03-04T17:09:03.370Z,1.00
2019-03-04T17:11:33.203Z,0.80
2019-03-04T17:14:02.579Z,1.30
2019-03-04T17:16:31.988Z,1.10
2019-03-04T17:19:01.383Z,1.20
2019-03-04T17:21:30.936Z,1.40
2019-03-04T17:24:00.909Z,1.40
2019-03-04T17:26:30.706Z,1.37
2019-03-04T17:29:00.173Z,1.10
2019-03-04T17:31:29.542Z,2.07
2019-03-04T17:34:00.160Z,1.20
2019-03-04T17:36:31.778Z,1.30
2019-03-04T17:39:01.237Z,1.27
2019-03-04T17:41:30.915Z,1.20
2019-03-04T17:44:00.528Z,1.23
2019-03-04T17:46:30.355Z,1.30
2019-03-04T17:49:00.009Z,1.43
2019-03-04T17:51:30.077Z,1.30
2019-03-04T17:53:59.894Z,1.67
2019-03-04T17:56:29.843Z,1.40
2019-03-04T17:59:00.122Z,1.30
2019-03-04T18:01:29.700Z,1.33
2019-03-04T18:03:59.231Z,1.33
2019-03-04T18:06:28.684Z,1.30
2019-03-04T18:08:58.107Z,1.33
2019-03-04T18:11:27.491Z,1.10
2019-03-04T18:13:56.945Z,1.50
2019-03-04T18:16:26.639Z,1.57
2019-03-04T18:18:57.183Z,1.60
2019-03-04T18:21:27.225Z,1.90
2019-03-04T18:23:58.526Z,2.03
2019-03-04T18:26:32.801Z,1.50
2019-03-04T18:29:10.620Z,1.73
2019-03-04T18:32:04.818Z,1.60
2019-03-04T18:35:18.109Z,1.60
2019-03-04T18:38:07.740Z,1.37
2019-03-04T18:41:14.532Z,1.80
2019-03-04T18:44:10.876Z,1.80
2019-03-04T18:47:23.082Z,1.80
2019-03-04T18:49:52.656Z,1.50
2019-03-04T18:52:22.283Z,1.70
2019-03-04T18:54:52.302Z,1.83
2019-03-04T18:57:22.090Z,1.47
2019-03-04T18:59:51.684Z,1.03
2019-03-04T19:02:21.096Z,1.50
2019-03-04T19:04:50.669Z,1.70
2019-03-04T19:07:20.562Z,1.70
2019-03-04T19:09:52.768Z,1.93
2019-03-04T19:12:22.685Z,2.00
2019-03-04T19:14:52.224Z,2.00
2019-03-04T19:17:21.796Z,1.90
2019-03-04T19:19:51.580Z,1.87
2019-03-04T19:22:21.163Z,2.43
2019-03-04T19:24:50.582Z,2.00
2019-03-04T19:27:20.475Z,1.57
2019-03-04T19:29:50.930Z,1.60
2019-03-04T19:32:20.316Z,1.67
2019-03-04T19:34:49.691Z,1.33
2019-03-04T19:37:19.137Z,1.93
2019-03-04T19:39:49.079Z,1.50
2019-03-04T19:42:19.102Z,1.07
2019-03-04T19:44:48.941Z,1.23
2019-03-04T19:47:33.461Z,1.70
2019-03-04T19:50:03.355Z,1.40
2019-03-04T19:52:47.367Z,1.40
2019-03-04T19:55:17.375Z,1.80
2019-03-04T19:57:52.639Z,1.30
2019-03-04T20:00:24.858Z,0.90
2019-03-04T20:02:56.099Z,1.23
2019-03-04T20:05:26.751Z,1.60
2019-03-04T20:07:56.086Z,1.50
2019-03-04T20:10:25.533Z,1.50
2019-03-04T20:12:54.923Z,2.83
2019-03-04T20:15:24.724Z,1.50
2019-03-04T20:17:56.504Z,1.40
2019-03-04T20:20:25.588Z,1.63
2019-03-04T20:22:55.014Z,1.37
2019-03-04T20:25:24.805Z,1.33
2019-03-04T20:27:54.293Z,0.83
2019-03-04T20:30:25.619Z,0.80
2019-03-04T20:32:55.787Z,0.60
2019-03-04T20:35:25.424Z,1.20
2019-03-04T20:37:55.384Z,0.70
2019-03-04T20:40:25.030Z,0.90
2019-03-04T20:42:54.518Z,0.80
2019-03-04T20:45:30.147Z,0.80
2019-03-04T20:47:59.608Z,1.03
2019-03-04T20:50:29.216Z,1.83
2019-03-04T20:52:58.664Z,1.60
2019-03-04T20:55:28.815Z,0.80
2019-03-04T20:57:59.376Z,0.80
2019-03-04T21:00:32.176Z,0.90
2019-03-04T21:03:02.062Z,0.80
2019-03-04T21:05:36.288Z,1.60
2019-03-04T21:08:08.902Z,1.13
2019-03-04T21:10:45.392Z,2.23
2019-03-04T21:13:23.674Z,0.60
2019-03-04T21:15:57.136Z,1.47
2019-03-04T21:18:28.346Z,0.90
2019-03-04T21:21:18.124Z,0.87
2019-03-04T21:24:13.962Z,1.00
2019-03-04T21:27:00.429Z,1.10
2019-03-04T21:30:18.544Z,1.43
2019-03-04T21:33:38.401Z,0.73
2019-03-04T21:36:55.279Z,1.17
2019-03-04T21:39:48.454Z,1.00
2019-03-04T21:42:26.678Z,2.30
2019-03-04T21:45:26.071Z,1.10
2019-03-04T21:48:03.323Z,0.97
2019-03-04T21:50:50.332Z,1.20
2019-03-04T21:53:38.202Z,0.97
2019-03-04T21:56:58.687Z,1.00
2019-03-04T21:59:28.770Z,1.23
2019-03-04T22:02:09.743Z,0.73
2019-03-04T22:04:40.256Z,0.63
2019-03-04T22:07:11.412Z,0.93
2019-03-04T22:09:43.121Z,1.40
2019-03-04T22:12:15.882Z,0.93
2019-03-04T22:14:45.295Z,1.80
2019-03-04T22:17:18.387Z,0.90
2019-03-04T22:19:48.116Z,1.13
2019-03-04T22:22:17.611Z,0.83
2019-03-04T22:24:47.054Z,1.60
2019-03-04T22:27:17.359Z,0.50
2019-03-04T22:29:46.756Z,0.60
2019-03-04T22:32:16.227Z,0.60
2019-03-04T22:34:46.531Z,0.60
2019-03-04T22:37:17.032Z,0.50
2019-03-04T22:39:46.319Z,0.70
2019-03-04T22:42:15.763Z,0.70
2019-03-04T22:44:46.905Z,0.70
2019-03-04T22:47:16.237Z,0.90
2019-03-04T22:49:45.633Z,0.90
2019-03-04T22:52:14.930Z,0.70
2019-03-04T22:54:44.247Z,0.80
2019-03-04T22:57:13.924Z,0.50
2019-03-04T22:59:43.372Z,3.73
2019-03-04T23:02:12.860Z,0.70
2019-03-04T23:04:48.605Z,0.50
2019-03-04T23:07:32.383Z,0.50
2019-03-04T23:10:39.442Z,1.03
2019-03-04T23:13:36.750Z,0.50
2019-03-04T23:16:06.950Z,0.60
2019-03-04T23:18:40.474Z,0.50
2019-03-04T23:21:12.076Z,0.67
2019-03-04T23:23:42.523Z,2.70
2019-03-04T23:26:11.920Z,1.47
2019-03-04T23:28:41.292Z,1.53
2019-03-04T23:31:10.809Z,1.00
2019-03-04T23:33:40.198Z,0.70
2019-03-04T23:36:09.609Z,0.80
2019-03-04T23:38:38.909Z,0.77
2019-03-04T23:41:08.247Z,0.50
2019-03-04T23:43:37.587Z,0.83
2019-03-04T23:46:06.972Z,0.60
2019-03-04T23:48:36.545Z,0.80
2019-03-04T23:51:06.001Z,0.60
2019-03-04T23:53:36.679Z,0.60
2019-03-04T23:56:06.163Z,0.97
2019-03-04T23:58:35.609Z,0.90
